Time;durP1;ratioP1;P1;durP2;ratioP2;P2;SDS_P1;SDS_P2;PMS_P1;PMS_P2;Temp;Humidity;BMP_temperature;BMP_pressure;BME280_temperature;BME280_humidity;BME280_pressure;Samples;Min_cycle;Max_cycle;Signal;HPM_P1;HPM_P2
2022/09/07 00:02:08;;;;;;;;;;;;;;;25.22;40.69;101332.02;104880;1305;62221;-83
2022/09/07 00:04:34;;;;;;;;;;;;;;;25.22;40.58;101334.70;104886;1305;62220;-83
2022/09/07 00:07:00;;;;;;;;;;;;;;;25.22;40.68;101333.81;104874;1305;62142;-84
2022/09/07 00:09:25;;;;;;;;;;;;;;;25.21;40.67;101334.75;104901;1305;62174;-85
2022/09/07 00:11:51;;;;;;;;;;;;;;;25.22;40.76;101334.19;104879;1305;62324;-83
2022/09/07 00:14:16;;;;;;;;;;;;;;;25.21;40.83;101336.20;104877;1304;62085;-84
2022/09/07 00:16:42;;;;;;;;;;;;;;;25.21;40.72;101338.74;104858;1305;62095;-85
2022/09/07 00:19:07;;;;;;;;;;;;;;;25.21;40.68;101337.27;104811;1305;62198;-84
2022/09/07 00:21:33;;;;;;;;;;;;;;;25.21;40.63;101335.88;104902;1304;62179;-84
2022/09/07 00:23:59;;;;;;;;;;;;;;;25.21;40.57;101338.05;104965;1305;62098;-84
2022/09/07 00:26:29;;;;;;;;;;;;;;;25.21;40.68;101340.77;104924;1305;61986;-85
2022/09/07 00:28:58;;;;;;;;;;;;;;;25.21;40.75;101340.40;104838;1305;72896;-84
2022/09/07 00:31:24;;;;;;;;;;;;;;;25.21;40.72;101344.89;104858;1305;75714;-84
2022/09/07 00:33:50;;;;;;;;;;;;;;;25.21;40.68;101346.71;104907;1305;62286;-84
2022/09/07 00:36:16;;;;;;;;;;;;;;;25.20;40.57;101346.55;104867;1305;62100;-84
2022/09/07 00:38:41;;;;;;;;;;;;;;;25.20;40.68;101348.56;104779;1305;62187;-84
2022/09/07 00:41:07;;;;;;;;;;;;;;;25.20;40.73;101348.40;104852;1305;62065;-84
2022/09/07 00:43:33;;;;;;;;;;;;;;;25.20;40.56;101353.02;104918;1305;62174;-83
2022/09/07 00:45:59;;;;;;;;;;;;;;;25.20;40.69;101353.59;104881;1305;62052;-83
2022/09/07 00:48:28;;;;;;;;;;;;;;;25.20;40.74;101357.60;104898;1305;62046;-84
2022/09/07 00:50:57;;;;;;;;;;;;;;;25.20;40.63;101355.27;104881;1305;72670;-83
2022/09/07 00:53:27;;;;;;;;;;;;;;;25.20;40.65;101353.43;104893;1305;76860;-85
2022/09/07 00:55:53;;;;;;;;;;;;;;;25.19;40.59;101350.43;104909;1305;61980;-84
2022/09/07 00:58:19;;;;;;;;;;;;;;;25.19;40.76;101345.73;104920;1305;62037;-86
2022/09/07 01:00:45;;;;;;;;;;;;;;;25.19;40.60;101342.13;104909;1305;62232;-83
2022/09/07 01:03:10;;;;;;;;;;;;;;;25.19;40.67;101342.13;104850;1305;62072;-83
2022/09/07 01:05:43;;;;;;;;;;;;;;;25.19;40.64;101342.86;104866;1305;62089;-83
2022/09/07 01:08:08;;;;;;;;;;;;;;;25.20;40.57;101338.35;104916;1305;61957;-84
2022/09/07 01:10:34;;;;;;;;;;;;;;;25.19;40.52;101340.36;104898;1305;62121;-85
2022/09/07 01:13:00;;;;;;;;;;;;;;;25.19;40.66;101342.89;104865;1305;63206;-85
2022/09/07 01:15:29;;;;;;;;;;;;;;;25.19;40.73;101341.80;104919;1305;62136;-83
2022/09/07 01:18:01;;;;;;;;;;;;;;;25.19;40.54;101340.91;104908;1305;61982;-83
2022/09/07 01:20:31;;;;;;;;;;;;;;;25.19;40.66;101343.25;104855;1305;72549;-84
2022/09/07 01:22:56;;;;;;;;;;;;;;;25.19;40.56;101345.61;104874;1305;75652;-83
2022/09/07 01:25:28;;;;;;;;;;;;;;;25.19;40.57;101345.77;104883;1304;62221;-85
2022/09/07 01:28:12;;;;;;;;;;;;;;;25.19;40.48;101350.81;104863;1305;61987;-84
2022/09/07 01:30:38;;;;;;;;;;;;;;;25.18;40.71;101351.73;104882;1305;73782;-85
2022/09/07 01:33:07;;;;;;;;;;;;;;;25.19;40.67;101348.84;104907;1304;60222;-84
2022/09/07 01:35:55;;;;;;;;;;;;;;;25.18;40.67;101346.17;104889;1305;62080;-85
2022/09/07 01:38:23;;;;;;;;;;;;;;;25.18;40.60;101344.56;104511;1308;61970;-85
2022/09/07 01:41:02;;;;;;;;;;;;;;;25.18;40.56;101345.09;104480;1308;72798;-84
2022/09/07 01:43:49;;;;;;;;;;;;;;;25.18;40.73;101343.86;104495;1308;76754;-83
2022/09/07 01:46:18;;;;;;;;;;;;;;;25.18;40.67;101346.00;104525;1308;62119;-84
2022/09/07 01:48:44;;;;;;;;;;;;;;;25.18;40.65;101347.30;104424;1309;62227;-84
2022/09/07 01:51:12;;;;;;;;;;;;;;;25.17;40.69;101351.48;104452;1308;62377;-84
2022/09/07 01:53:42;;;;;;;;;;;;;;;25.16;40.65;101348.86;104473;1308;77638;-85
2022/09/07 01:56:16;;;;;;;;;;;;;;;25.17;40.62;101345.36;104448;1309;61983;-85
2022/09/07 01:58:44;;;;;;;;;;;;;;;25.17;40.49;101343.45;104476;1308;62172;-84
2022/09/07 02:01:15;;;;;;;;;;;;;;;25.16;40.45;101340.41;104522;1308;72995;-84
2022/09/07 02:03:48;;;;;;;;;;;;;;;25.17;40.59;101340.55;104496;1308;76618;-83
2022/09/07 02:06:16;;;;;;;;;;;;;;;25.16;40.42;101338.10;104494;1308;61909;-84
2022/09/07 02:09:16;;;;;;;;;;;;;;;25.16;40.58;101335.77;104506;1309;62180;-84
2022/09/07 02:11:43;;;;;;;;;;;;;;;25.16;40.57;101335.60;104318;1315;72559;-81
2022/09/07 02:14:22;;;;;;;;;;;;;;;25.16;40.56;101332.70;104207;1314;76452;-83
2022/09/07 02:16:49;;;;;;;;;;;;;;;25.16;40.53;101324.80;104386;1309;61806;-86
2022/09/07 02:19:15;;;;;;;;;;;;;;;25.16;40.51;101327.32;104459;1309;61934;-85
2022/09/07 02:21:43;;;;;;;;;;;;;;;25.15;40.50;101324.13;104394;1310;62083;-83
2022/09/07 02:24:11;;;;;;;;;;;;;;;25.15;40.54;101323.38;104410;1310;76625;-85
2022/09/07 02:26:37;;;;;;;;;;;;;;;25.15;40.55;101321.41;104412;1310;62100;-82
2022/09/07 02:29:03;;;;;;;;;;;;;;;25.15;40.45;101318.52;104417;1309;62230;-84
2022/09/07 02:31:28;;;;;;;;;;;;;;;25.15;40.50;101319.27;104446;1309;62248;-82
2022/09/07 02:33:54;;;;;;;;;;;;;;;25.15;40.55;101324.69;104432;1310;62108;-86
2022/09/07 02:36:20;;;;;;;;;;;;;;;25.15;40.57;101327.73;104451;1309;62277;-83
2022/09/07 02:38:45;;;;;;;;;;;;;;;25.15;40.50;101329.52;104363;1310;62130;-84
2022/09/07 02:41:30;;;;;;;;;;;;;;;25.15;40.46;101329.70;104426;1310;62174;-85
2022/09/07 02:43:56;;;;;;;;;;;;;;;25.14;40.55;101325.79;104436;1309;73201;-84
2022/09/07 02:46:44;;;;;;;;;;;;;;;25.14;40.55;101321.83;104627;1305;62116;-84
2022/09/07 02:49:12;;;;;;;;;;;;;;;25.14;40.55;101320.77;104473;1309;61334;-83
2022/09/07 02:51:56;;;;;;;;;;;;;;;25.14;40.45;101320.05;104514;1308;62241;-81
2022/09/07 02:54:57;;;;;;;;;;;;;;;25.14;40.55;101318.23;104483;1309;72908;-84
2022/09/07 02:57:38;;;;;;;;;;;;;;;25.14;40.54;101318.79;104239;1315;76852;-84
2022/09/07 03:00:08;;;;;;;;;;;;;;;25.14;40.56;101317.91;104297;1315;61980;-83
2022/09/07 03:02:58;;;;;;;;;;;;;;;25.15;40.50;101317.22;104148;1307;601771;-81
2022/09/07 03:05:28;;;;;;;;;;;;;;;25.14;40.47;101322.98;104422;1311;59385;-81
2022/09/07 03:07:53;;;;;;;;;;;;;;;25.13;40.51;101321.95;104429;1311;60130;-81
2022/09/07 03:10:20;;;;;;;;;;;;;;;25.13;40.38;101323.71;104460;1311;59276;-81
2022/09/07 03:12:46;;;;;;;;;;;;;;;25.13;40.49;101322.31;104442;1311;59298;-81
2022/09/07 03:15:13;;;;;;;;;;;;;;;25.13;40.50;101323.95;103157;1309;1714695;-82
2022/09/07 03:17:38;;;;;;;;;;;;;;;25.13;40.48;101328.45;104522;1308;59251;-82
2022/09/07 03:20:04;;;;;;;;;;;;;;;25.12;40.55;101328.30;104474;1308;59293;-82
2022/09/07 03:22:32;;;;;;;;;;;;;;;25.12;40.46;101329.77;104613;1308;59266;-82
2022/09/07 03:24:57;;;;;;;;;;;;;;;25.12;40.48;101327.98;104649;1307;59280;-82
2022/09/07 03:27:22;;;;;;;;;;;;;;;25.11;40.58;101331.07;104701;1308;59687;-82
2022/09/07 03:29:48;;;;;;;;;;;;;;;25.11;40.69;101333.80;104644;1308;60498;-81
2022/09/07 03:32:14;;;;;;;;;;;;;;;25.10;40.48;101334.91;104530;1307;60343;-81
2022/09/07 03:34:41;;;;;;;;;;;;;;;25.10;40.42;101333.50;104506;1308;59648;-81
2022/09/07 03:37:07;;;;;;;;;;;;;;;25.10;40.57;101333.86;104609;1308;59634;-82
2022/09/07 03:39:33;;;;;;;;;;;;;;;25.09;40.38;101335.35;104399;1307;59678;-82
2022/09/07 03:41:59;;;;;;;;;;;;;;;25.08;40.72;101339.97;104610;1308;59657;-82
2022/09/07 03:44:24;;;;;;;;;;;;;;;25.05;40.52;101338.55;104522;1308;59742;-81
2022/09/07 03:46:50;;;;;;;;;;;;;;;25.03;40.54;101340.93;104859;1305;59680;-81
2022/09/07 03:49:16;;;;;;;;;;;;;;;24.99;40.46;101341.05;104616;1305;59776;-81
2022/09/07 03:51:41;;;;;;;;;;;;;;;24.96;40.48;101348.91;104647;1306;61307;-82
2022/09/07 03:54:07;;;;;;;;;;;;;;;24.91;40.38;101348.67;104616;1306;59650;-80
2022/09/07 03:56:33;;;;;;;;;;;;;;;24.87;40.37;101353.30;104627;1307;59511;-83
2022/09/07 03:58:59;;;;;;;;;;;;;;;24.85;40.39;101351.71;104722;1306;59684;-81
2022/09/07 04:01:25;;;;;;;;;;;;;;;24.82;40.26;101351.59;104732;1306;59688;-81
2022/09/07 04:03:51;;;;;;;;;;;;;;;24.79;40.21;101359.77;104773;1306;59793;-81
2022/09/07 04:06:16;;;;;;;;;;;;;;;24.74;40.20;101361.51;104728;1306;59388;-81
2022/09/07 04:08:42;;;;;;;;;;;;;;;24.69;40.20;101359.65;104483;1306;72831;-81
2022/09/07 04:11:09;;;;;;;;;;;;;;;24.64;40.16;101365.23;104517;1307;59690;-81
2022/09/07 04:13:35;;;;;;;;;;;;;;;24.59;40.05;101363.77;104546;1308;59682;-81
2022/09/07 04:16:08;;;;;;;;;;;;;;;24.55;40.17;101359.91;104587;1306;59663;-81
2022/09/07 04:18:34;;;;;;;;;;;;;;;24.52;40.15;101364.83;104549;1308;73866;-81
2022/09/07 04:21:00;;;;;;;;;;;;;;;24.49;40.05;101360.92;104541;1306;74126;-81
2022/09/07 04:23:25;;;;;;;;;;;;;;;24.49;40.11;101368.52;104583;1307;59647;-81
2022/09/07 04:25:51;;;;;;;;;;;;;;;24.48;40.04;101368.39;104515;1308;59787;-80
2022/09/07 04:28:17;;;;;;;;;;;;;;;24.48;40.00;101367.69;104590;1306;59681;-81
2022/09/07 04:30:42;;;;;;;;;;;;;;;24.47;39.94;101372.11;104470;1307;59652;-81
2022/09/07 04:33:08;;;;;;;;;;;;;;;24.47;39.97;101370.86;104424;1306;59762;-81
2022/09/07 04:35:40;;;;;;;;;;;;;;;24.44;39.86;101369.58;104294;1308;60152;-81
2022/09/07 04:38:05;;;;;;;;;;;;;;;24.41;39.95;101371.83;104361;1306;60297;-81
2022/09/07 04:40:32;;;;;;;;;;;;;;;24.39;39.96;101378.81;104458;1306;59717;-84
2022/09/07 04:42:58;;;;;;;;;;;;;;;24.36;39.86;101380.95;104389;1306;59401;-82
2022/09/07 04:45:24;;;;;;;;;;;;;;;24.36;39.87;101381.36;104357;1306;59384;-82
2022/09/07 04:47:51;;;;;;;;;;;;;;;24.37;40.05;101385.44;104427;1306;59789;-82
2022/09/07 04:50:16;;;;;;;;;;;;;;;24.36;39.94;101383.88;104361;1306;59577;-81
2022/09/07 04:52:42;;;;;;;;;;;;;;;24.37;40.10;101386.50;104431;1306;59997;-82
2022/09/07 04:55:08;;;;;;;;;;;;;;;24.37;40.04;101384.31;104461;1306;59677;-82
2022/09/07 04:57:34;;;;;;;;;;;;;;;24.35;39.92;101387.20;104012;1307;60257;-83
2022/09/07 04:59:59;;;;;;;;;;;;;;;24.27;39.87;101385.60;104470;1306;59802;-82
2022/09/07 05:02:24;;;;;;;;;;;;;;;24.22;39.84;101387.96;104438;1306;60240;-83
2022/09/07 05:04:50;;;;;;;;;;;;;;;24.20;39.96;101391.35;104420;1306;59696;-82
2022/09/07 05:07:16;;;;;;;;;;;;;;;24.21;40.06;101394.69;104439;1306;58999;-85
2022/09/07 05:09:41;;;;;;;;;;;;;;;24.25;40.01;101394.37;104448;1306;59612;-83
2022/09/07 05:12:07;;;;;;;;;;;;;;;24.31;40.01;101399.02;104428;1306;59699;-83
2022/09/07 05:14:32;;;;;;;;;;;;;;;24.34;40.01;101401.46;104419;1306;59801;-82
2022/09/07 05:16:58;;;;;;;;;;;;;;;24.31;39.94;101399.72;104420;1306;60596;-82
2022/09/07 05:19:24;;;;;;;;;;;;;;;24.30;39.90;101399.11;104329;1307;59697;-80
2022/09/07 05:21:49;;;;;;;;;;;;;;;24.32;39.97;101399.80;104471;1306;59108;-82
2022/09/07 05:24:15;;;;;;;;;;;;;;;24.37;39.98;101401.27;104423;1307;59708;-83
2022/09/07 05:26:42;;;;;;;;;;;;;;;24.39;39.90;101398.94;104409;1307;60420;-84
2022/09/07 05:29:08;;;;;;;;;;;;;;;24.40;39.82;101397.04;104426;1307;59674;-84
2022/09/07 05:31:34;;;;;;;;;;;;;;;24.42;39.80;101399.23;104449;1306;59585;-84
2022/09/07 05:33:59;;;;;;;;;;;;;;;24.40;39.74;101399.39;104434;1306;60484;-84
2022/09/07 05:36:25;;;;;;;;;;;;;;;24.38;39.75;101399.91;104408;1306;59505;-84
2022/09/07 05:38:54;;;;;;;;;;;;;;;24.36;39.75;101398.98;104414;1306;59769;-81
2022/09/07 05:41:20;;;;;;;;;;;;;;;24.36;39.77;101398.67;104471;1306;61315;-81
2022/09/07 05:43:46;;;;;;;;;;;;;;;24.38;39.73;101394.33;104406;1306;59708;-83
2022/09/07 05:46:12;;;;;;;;;;;;;;;24.41;39.86;101394.27;104294;1308;59386;-83
2022/09/07 05:48:37;;;;;;;;;;;;;;;24.43;39.68;101392.52;104362;1307;59711;-82
2022/09/07 05:51:03;;;;;;;;;;;;;;;24.39;39.67;101392.79;104369;1306;59646;-83
2022/09/07 05:53:28;;;;;;;;;;;;;;;24.30;39.59;101396.58;104439;1306;59655;-84
2022/09/07 05:55:58;;;;;;;;;;;;;;;24.17;39.65;101396.27;104422;1306;60840;-82
2022/09/07 05:58:23;;;;;;;;;;;;;;;24.11;39.76;101398.02;104428;1307;72931;-82
2022/09/07 06:00:49;;;;;;;;;;;;;;;24.00;39.67;101398.96;104603;1306;58010;-84
2022/09/07 06:03:15;;;;;;;;;;;;;;;23.89;39.86;101403.89;104537;1306;59660;-83
2022/09/07 06:05:40;;;;;;;;;;;;;;;23.83;39.85;101402.89;104512;1306;58502;-85
2022/09/07 06:08:05;;;;;;;;;;;;;;;23.81;39.93;101401.77;104152;1303;101689;-82
2022/09/07 06:10:34;;;;;;;;;;;;;;;23.86;39.90;101402.87;103762;1309;73553;-83
2022/09/07 06:13:00;;;;;;;;;;;;;;;23.93;39.93;101394.61;103734;1309;74070;-81
2022/09/07 06:15:26;;;;;;;;;;;;;;;24.01;39.92;101398.52;103807;1308;59706;-82
2022/09/07 06:17:52;;;;;;;;;;;;;;;24.08;39.85;101397.14;103872;1308;59790;-82
2022/09/07 06:20:18;;;;;;;;;;;;;;;24.13;39.81;101395.67;104254;1309;59651;-82
2022/09/07 06:22:43;;;;;;;;;;;;;;;24.17;39.88;101396.59;103898;1308;60050;-83
2022/09/07 06:25:09;;;;;;;;;;;;;;;24.21;39.74;101395.66;103953;1309;59807;-82
2022/09/07 06:27:34;;;;;;;;;;;;;;;24.23;39.79;101394.05;103780;1311;59669;-83
2022/09/07 06:30:01;;;;;;;;;;;;;;;24.26;39.76;101391.80;103849;1309;59726;-81
2022/09/07 06:32:27;;;;;;;;;;;;;;;24.27;39.60;101387.05;103780;1310;61619;-81
2022/09/07 06:34:52;;;;;;;;;;;;;;;24.30;39.68;101382.36;103545;1312;59685;-81
2022/09/07 06:37:18;;;;;;;;;;;;;;;24.33;39.67;101381.95;103783;1310;59809;-82
2022/09/07 06:39:43;;;;;;;;;;;;;;;24.36;39.63;101384.46;103683;1312;59800;-81
2022/09/07 06:42:09;;;;;;;;;;;;;;;24.31;39.55;101385.89;103630;1310;60413;-81
2022/09/07 06:44:35;;;;;;;;;;;;;;;24.31;39.70;101391.99;103632;1312;73939;-82
2022/09/07 06:47:02;;;;;;;;;;;;;;;24.33;39.64;101391.69;103988;1312;72902;-82
2022/09/07 06:49:29;;;;;;;;;;;;;;;24.36;39.76;101395.36;103648;1312;60205;-82
2022/09/07 06:51:54;;;;;;;;;;;;;;;24.37;39.70;101397.45;103537;1312;60069;-82
2022/09/07 06:54:20;;;;;;;;;;;;;;;24.34;39.83;101402.89;103563;1312;59774;-83
2022/09/07 06:56:46;;;;;;;;;;;;;;;24.31;39.95;101406.56;103754;1311;59701;-83
2022/09/07 06:59:11;;;;;;;;;;;;;;;24.34;40.00;101404.20;103528;1312;59823;-83
2022/09/07 07:01:37;;;;;;;;;;;;;;;24.29;39.92;101405.98;103555;1312;59716;-83
2022/09/07 07:04:02;;;;;;;;;;;;;;;24.21;40.00;101404.27;103479;1312;60039;-84
2022/09/07 07:06:34;;;;;;;;;;;;;;;24.22;40.11;101404.13;103530;1312;59406;-83
2022/09/07 07:09:00;;;;;;;;;;;;;;;24.24;40.25;101407.59;104965;1312;73914;-82
2022/09/07 07:11:25;;;;;;;;;;;;;;;24.27;40.18;101408.80;103466;1312;60546;-82
2022/09/07 07:13:51;;;;;;;;;;;;;;;24.27;40.04;101412.60;103383;1312;60497;-83
2022/09/07 07:16:16;;;;;;;;;;;;;;;24.27;40.05;101412.42;103525;1312;62385;-84
2022/09/07 07:18:42;;;;;;;;;;;;;;;24.28;40.14;101415.58;103483;1313;60484;-83
2022/09/07 07:21:08;;;;;;;;;;;;;;;24.33;40.16;101417.56;103712;1312;73868;-83
2022/09/07 07:23:34;;;;;;;;;;;;;;;24.39;40.33;101414.05;103698;1309;60507;-83
2022/09/07 07:26:04;;;;;;;;;;;;;;;24.41;40.20;101417.30;104014;1308;58427;-82
2022/09/07 07:28:31;;;;;;;;;;;;;;;24.43;40.28;101414.98;103819;1309;74276;-82
2022/09/07 07:31:03;;;;;;;;;;;;;;;24.48;40.21;101416.27;103839;1309;72832;-83
2022/09/07 07:33:29;;;;;;;;;;;;;;;24.53;40.12;101416.05;103747;1309;60531;-83
2022/09/07 07:36:05;;;;;;;;;;;;;;;24.57;40.13;101415.77;103644;1309;62811;-83
2022/09/07 07:38:30;;;;;;;;;;;;;;;24.56;40.11;101414.92;103518;1309;72978;-83
2022/09/07 07:40:56;;;;;;;;;;;;;;;24.43;40.05;101411.74;103745;1309;60540;-82
2022/09/07 07:43:22;;;;;;;;;;;;;;;24.36;40.23;101410.11;103752;1309;60536;-81
2022/09/07 07:45:48;;;;;;;;;;;;;;;24.30;40.17;101412.05;103739;1309;60470;-83
2022/09/07 07:48:15;;;;;;;;;;;;;;;24.23;40.23;101410.21;103749;1309;60637;-81
2022/09/07 07:50:40;;;;;;;;;;;;;;;24.23;40.25;101409.86;103759;1309;60546;-82
2022/09/07 07:53:06;;;;;;;;;;;;;;;24.26;40.22;101410.52;103782;1310;60543;-82
2022/09/07 07:55:31;;;;;;;;;;;;;;;24.33;40.14;101406.83;103769;1309;60759;-83
2022/09/07 07:57:57;;;;;;;;;;;;;;;24.37;40.11;101400.85;103890;1309;60465;-82
2022/09/07 08:00:22;;;;;;;;;;;;;;;24.41;40.02;101397.02;103662;1309;60504;-84
2022/09/07 08:02:48;;;;;;;;;;;;;;;24.32;39.93;101394.40;104196;1308;60494;-82
2022/09/07 08:05:15;;;;;;;;;;;;;;;24.20;40.04;101396.95;103944;1309;60435;-80
2022/09/07 08:07:41;;;;;;;;;;;;;;;24.20;40.11;101397.11;103691;1309;60560;-85
2022/09/07 08:10:09;;;;;;;;;;;;;;;24.25;40.19;101396.92;103624;1309;60533;-82
2022/09/07 08:12:34;;;;;;;;;;;;;;;24.30;40.11;101393.00;105180;1309;59196;-82
2022/09/07 08:15:00;;;;;;;;;;;;;;;24.30;40.07;101399.80;105149;1309;59694;-84
2022/09/07 08:17:26;;;;;;;;;;;;;;;24.24;39.97;101397.33;105285;1308;58373;-85
2022/09/07 08:19:54;;;;;;;;;;;;;;;24.14;39.96;101401.16;105083;1309;60241;-84
2022/09/07 08:22:20;;;;;;;;;;;;;;;24.10;40.10;101400.36;105286;1309;72815;-84
2022/09/07 08:24:46;;;;;;;;;;;;;;;24.12;40.15;101399.70;104693;1309;59333;-83
2022/09/07 08:27:12;;;;;;;;;;;;;;;24.19;40.17;101396.09;103853;1309;61684;-84
2022/09/07 08:29:37;;;;;;;;;;;;;;;24.29;40.07;101395.22;103797;1309;60479;-84
2022/09/07 08:32:04;;;;;;;;;;;;;;;24.35;40.12;101393.11;103615;1309;60623;-83
2022/09/07 08:34:29;;;;;;;;;;;;;;;24.38;40.12;101395.20;103672;1309;60572;-82
2022/09/07 08:36:55;;;;;;;;;;;;;;;24.41;39.99;101389.41;103737;1309;60648;-82
2022/09/07 08:39:22;;;;;;;;;;;;;;;24.45;39.94;101390.58;103777;1309;60377;-82
2022/09/07 08:41:54;;;;;;;;;;;;;;;24.47;39.98;101386.85;103753;1309;60502;-81
2022/09/07 08:44:22;;;;;;;;;;;;;;;24.46;39.96;101385.96;103774;1309;72535;-82
2022/09/07 08:46:48;;;;;;;;;;;;;;;24.50;40.00;101385.01;103745;1309;74842;-81
2022/09/07 08:49:34;;;;;;;;;;;;;;;24.51;39.84;101382.20;103778;1309;60435;-83
2022/09/07 08:52:01;;;;;;;;;;;;;;;24.50;39.77;101380.50;103687;1309;60492;-82
2022/09/07 08:54:27;;;;;;;;;;;;;;;24.51;39.86;101380.08;103883;1309;72818;-84
2022/09/07 08:56:54;;;;;;;;;;;;;;;24.56;39.96;101375.31;103923;1309;60604;-84
2022/09/07 08:59:29;;;;;;;;;;;;;;;24.59;39.98;101368.99;103758;1309;60370;-82
2022/09/07 09:01:54;;;;;;;;;;;;;;;24.59;39.90;101365.17;103464;1309;60438;-83
2022/09/07 09:04:20;;;;;;;;;;;;;;;24.65;39.83;101361.21;103259;1309;60557;-83
2022/09/07 09:06:49;;;;;;;;;;;;;;;24.71;40.17;101360.70;103428;1309;60533;-84
2022/09/07 09:09:24;;;;;;;;;;;;;;;24.75;40.17;101354.79;103697;1309;61317;-84
2022/09/07 09:11:50;;;;;;;;;;;;;;;24.78;40.27;101351.56;103774;1309;60879;-83
2022/09/07 09:14:15;;;;;;;;;;;;;;;24.76;40.01;101347.34;103662;1309;60562;-82
2022/09/07 09:16:42;;;;;;;;;;;;;;;24.71;40.04;101348.23;103593;1309;59321;-84
2022/09/07 09:19:11;;;;;;;;;;;;;;;24.71;40.07;101341.60;103761;1309;59297;-82
2022/09/07 09:21:36;;;;;;;;;;;;;;;24.69;39.80;101341.64;103867;1309;60473;-82
2022/09/07 09:24:08;;;;;;;;;;;;;;;24.65;40.04;101339.02;103693;1311;60498;-84
2022/09/07 09:26:33;;;;;;;;;;;;;;;24.68;40.00;101335.40;103815;1309;74905;-84
2022/09/07 09:29:19;;;;;;;;;;;;;;;24.71;39.95;101333.35;103670;1309;60620;-84
2022/09/07 09:31:45;;;;;;;;;;;;;;;24.75;40.04;101332.85;103785;1309;60418;-83
2022/09/07 09:34:11;;;;;;;;;;;;;;;24.75;39.81;101324.94;103886;1309;60594;-83
2022/09/07 09:36:42;;;;;;;;;;;;;;;24.71;39.85;101320.72;104884;1309;59297;-83
2022/09/07 09:39:26;;;;;;;;;;;;;;;24.68;39.74;101325.33;103716;1309;61453;-83
2022/09/07 09:41:53;;;;;;;;;;;;;;;24.67;39.86;101320.92;103690;1309;60993;-83
2022/09/07 09:44:18;;;;;;;;;;;;;;;24.70;39.75;101319.42;103655;1309;74009;-84
2022/09/07 09:46:47;;;;;;;;;;;;;;;24.71;39.81;101321.27;103651;1309;60500;-81
2022/09/07 09:49:17;;;;;;;;;;;;;;;24.73;39.61;101319.19;103707;1309;60437;-83
2022/09/07 09:51:46;;;;;;;;;;;;;;;24.73;39.41;101324.17;103821;1309;60561;-84
2022/09/07 09:54:19;;;;;;;;;;;;;;;24.74;39.52;101319.21;103662;1309;72888;-82
2022/09/07 09:56:45;;;;;;;;;;;;;;;24.74;39.44;101318.32;103521;1309;74046;-82
2022/09/07 09:59:21;;;;;;;;;;;;;;;24.72;39.33;101315.30;103564;1309;60569;-82
2022/09/07 10:01:47;;;;;;;;;;;;;;;24.74;39.20;101313.55;103521;1309;61292;-83
2022/09/07 10:04:22;;;;;;;;;;;;;;;24.75;39.16;101314.30;103527;1309;60528;-84
2022/09/07 10:06:54;;;;;;;;;;;;;;;24.76;39.15;101315.65;103520;1309;74864;-84
2022/09/07 10:09:40;;;;;;;;;;;;;;;24.78;39.25;101311.03;103657;1309;60350;-83
2022/09/07 10:12:06;;;;;;;;;;;;;;;24.80;39.17;101312.48;103686;1309;61510;-85
2022/09/07 10:14:41;;;;;;;;;;;;;;;24.82;39.14;101308.73;103617;1309;60523;-82
2022/09/07 10:17:10;;;;;;;;;;;;;;;24.82;38.96;101304.23;103605;1309;74419;-84
2022/09/07 10:19:37;;;;;;;;;;;;;;;24.82;39.04;101303.34;103721;1309;60532;-82
2022/09/07 10:22:03;;;;;;;;;;;;;;;24.82;38.99;101301.38;103865;1309;61353;-82
2022/09/07 10:24:34;;;;;;;;;;;;;;;24.83;38.90;101296.89;103921;1309;72821;-83
2022/09/07 10:27:00;;;;;;;;;;;;;;;24.86;38.96;101294.23;103866;1309;74289;-83
2022/09/07 10:29:28;;;;;;;;;;;;;;;24.87;38.93;101296.59;103963;1309;60446;-82
2022/09/07 10:31:55;;;;;;;;;;;;;;;24.89;38.95;101291.77;103887;1308;60887;-82
2022/09/07 10:34:27;;;;;;;;;;;;;;;24.89;38.86;101289.05;103979;1309;60373;-82
2022/09/07 10:37:01;;;;;;;;;;;;;;;24.89;38.77;101284.42;103898;1309;74271;-83
2022/09/07 10:39:30;;;;;;;;;;;;;;;24.87;38.83;101282.54;103937;1309;60505;-82
2022/09/07 10:42:08;;;;;;;;;;;;;;;24.87;38.71;101280.03;103881;1308;60374;-82
2022/09/07 10:44:54;;;;;;;;;;;;;;;24.88;38.72;101279.23;103912;1309;72885;-83
2022/09/07 10:47:23;;;;;;;;;;;;;;;24.88;38.58;101279.06;103994;1308;74075;-82
2022/09/07 10:49:50;;;;;;;;;;;;;;;24.88;38.51;101272.45;104236;1309;60726;-83
2022/09/07 10:52:24;;;;;;;;;;;;;;;24.88;38.55;101269.92;104502;1309;62858;-82
2022/09/07 10:55:26;;;;;;;;;;;;;;;24.88;38.53;101264.65;103658;1308;73965;-81
2022/09/07 10:58:13;;;;;;;;;;;;;;;24.88;38.50;101269.59;103375;1312;74949;-83
2022/09/07 11:01:00;;;;;;;;;;;;;;;24.87;38.46;101261.87;103354;1313;61480;-83
2022/09/07 11:03:31;;;;;;;;;;;;;;;24.87;38.53;101256.82;103348;1312;60529;-81
2022/09/07 11:06:02;;;;;;;;;;;;;;;24.89;38.59;101257.80;103211;1313;73758;-83
2022/09/07 11:08:37;;;;;;;;;;;;;;;24.90;38.61;101256.40;103260;1312;75509;-82
2022/09/07 11:11:08;;;;;;;;;;;;;;;24.91;38.56;101251.66;105015;1312;60215;-83
2022/09/07 11:13:35;;;;;;;;;;;;;;;24.91;38.66;101245.86;104933;1313;60456;-83
2022/09/07 11:16:01;;;;;;;;;;;;;;;24.90;38.51;101249.02;104949;1312;72764;-83
2022/09/07 11:18:49;;;;;;;;;;;;;;;24.89;38.52;101245.84;104957;1312;65667;-83
2022/09/07 11:21:16;;;;;;;;;;;;;;;24.91;38.51;101242.98;104821;1313;61207;-83
2022/09/07 11:24:08;;;;;;;;;;;;;;;24.94;38.44;101241.88;104974;1312;60391;-83
2022/09/07 11:26:36;;;;;;;;;;;;;;;24.98;38.52;101245.39;105049;1312;64712;-83
2022/09/07 11:29:13;;;;;;;;;;;;;;;25.01;38.39;101246.17;104148;1312;74925;-84
2022/09/07 11:32:06;;;;;;;;;;;;;;;25.05;38.46;101245.70;103606;1311;60392;-84
2022/09/07 11:34:36;;;;;;;;;;;;;;;25.08;38.40;101242.20;105304;1308;59422;-83
2022/09/07 11:37:02;;;;;;;;;;;;;;;25.10;38.37;101245.98;105014;1308;73571;-83
2022/09/07 11:39:40;;;;;;;;;;;;;;;25.12;38.53;101241.19;104073;1309;60484;-82
2022/09/07 11:42:10;;;;;;;;;;;;;;;25.14;38.35;101238.65;104090;1308;60352;-83
2022/09/07 11:44:54;;;;;;;;;;;;;;;25.15;38.33;101236.39;103959;1309;60520;-82
2022/09/07 11:47:25;;;;;;;;;;;;;;;25.17;38.29;101239.27;103993;1308;73998;-84
2022/09/07 11:49:53;;;;;;;;;;;;;;;25.17;38.15;101237.10;103987;1309;73578;-83
2022/09/07 11:52:19;;;;;;;;;;;;;;;25.15;38.16;101232.44;104040;1309;61277;-83
2022/09/07 11:54:47;;;;;;;;;;;;;;;25.11;38.05;101230.08;103828;1308;60459;-84
2022/09/07 11:57:17;;;;;;;;;;;;;;;25.08;38.08;101228.67;103891;1308;71711;-83
2022/09/07 12:00:15;;;;;;;;;;;;;;;25.08;37.96;101228.17;103832;1309;73932;-81
2022/09/07 12:02:49;;;;;;;;;;;;;;;25.05;37.92;101223.48;103233;1313;60459;-82
2022/09/07 12:05:30;;;;;;;;;;;;;;;25.06;37.97;101220.77;103359;1315;61847;-82
2022/09/07 12:07:56;;;;;;;;;;;;;;;25.05;37.91;101216.13;103582;1312;72883;-83
2022/09/07 12:10:24;;;;;;;;;;;;;;;25.06;37.96;101215.73;103502;1312;60418;-82
2022/09/07 12:13:16;;;;;;;;;;;;;;;25.06;38.00;101213.19;103245;1313;60484;-82
2022/09/07 12:15:42;;;;;;;;;;;;;;;25.06;37.93;101212.23;102502;1321;60549;-83
2022/09/07 12:18:07;;;;;;;;;;;;;;;25.07;38.02;101210.39;102792;1320;60698;-84
2022/09/07 12:20:42;;;;;;;;;;;;;;;25.07;37.90;101209.33;102801;1319;60603;-84
2022/09/07 12:23:27;;;;;;;;;;;;;;;25.06;37.73;101203.12;103033;1323;61288;-81
2022/09/07 12:25:53;;;;;;;;;;;;;;;25.05;37.82;101195.65;102784;1323;60398;-83
2022/09/07 12:28:24;;;;;;;;;;;;;;;25.05;37.79;101193.29;102803;1322;60812;-83
2022/09/07 12:30:50;;;;;;;;;;;;;;;25.03;37.57;101188.23;102858;1320;75124;-83
2022/09/07 12:33:19;;;;;;;;;;;;;;;25.04;37.79;101189.05;102963;1320;60596;-83
2022/09/07 12:35:45;;;;;;;;;;;;;;;25.05;37.92;101187.52;102839;1321;61573;-83